• Join FlightAware (Why Join?)
  • Login
  • US Flag 
03:19AM EDT


 

Airport Tracker/Info


-or-


 

Live Flight TrackerFlight Track Log ✈ TCF3538 ✈ 27-Apr-2013 ✈ KRSW - KORD

Flight Track Log - Related Links

Times and Time Zones

All times are in EDT time to prevent confusion due to time zone crossing. See the TCF3538 flight status page for this flight to view local times or setup timezone preferences in your user account.

Time Position Orientation Groundspeed Altitude Reporting Facility
EDT Latitude Longitude Course Direction KTS MPH feet Rate Location/Type
04:58PM 26.6647 -81.6797 352° North 235 270 5,900  Level Miami Center
04:59PM 26.9120 -81.7333 North  Level FlightAware Approximate
04:59PM 26.7400 -81.6783 North 247 284 8,700  Level Miami Center
05:00PM 27.0069 -81.7333 North  Level FlightAware Approximate
05:00PM 26.8208 -81.6981 348° North 269 310 11,100  Level Miami Center
05:01PM 27.0969 -81.7654 340° North  Level FlightAware Approximate
05:01PM 26.9097 -81.7203 347° North 301 346 13,200  Level Miami Center
05:02PM 27.2012 -81.8015 352° North  Level Estimated
05:02PM 27.0031 -81.7428 348° North 327 376 14,900  Level Miami Center
05:03PM 27.3054 -81.8375 352° North  Level Estimated
05:03PM 27.0939 -81.7722 344° North 338 389 14,900  Level Miami Center
05:04PM 27.1867 -81.8019 344° North 338 389 14,900 780 Level Miami Center
05:05PM 27.2775 -81.8314 344° North 338 389 16,500 1,860 Climbing Miami Center
05:06PM 27.3747 -81.8614 345° North 343 395 18,700 2,220 Climbing Miami Center
05:07PM 27.4797 -81.8986 343° North 353 406 21,000 2,040 Climbing Miami Center
05:08PM 27.5808 -81.9336 343° North 365 420 22,800 1,740 Climbing Miami Center
05:09PM 27.6839 -81.9733 341° North 384 442 24,500 1,320 Climbing Miami Center
05:13PM 28.0994 -82.0856 347° North 426 490 29,400 1,260 Climbing Jacksonville Center
05:14PM 28.2019 -82.1506 331° Northwest 432 497 30,700 1,140 Climbing Jacksonville Center
05:15PM 28.3025 -82.2161 330° Northwest 415 478 31,700 900 Climbing Jacksonville Center
05:16PM 28.4072 -82.2789 332° Northwest 437 503 32,600 840 Climbing Jacksonville Center
05:17PM 28.5078 -82.3469 329° Northwest 447 514 33,400 660 Climbing Jacksonville Center
05:18PM 28.6103 -82.4078 332° Northwest 437 503 34,000 300 Climbing Jacksonville Center
05:19PM 28.7044 -82.4736 328° Northwest 432 497 34,000  Level Jacksonville Center
05:20PM 28.8047 -82.5372 331° Northwest 432 497 34,000  Level Jacksonville Center
05:21PM 28.9031 -82.5983 331° Northwest 432 497 34,000  Level Jacksonville Center
05:22PM 29.0033 -82.6622 331° Northwest 432 497 34,000  Level Jacksonville Center
05:23PM 29.1014 -82.7261 330° Northwest 406 467 34,000  Level Jacksonville Center
05:24PM 29.2017 -82.7928 330° Northwest 406 467 34,000  Level Jacksonville Center
05:25PM 29.3000 -82.8569 330° Northwest 401 461 34,000  Level Jacksonville Center
05:26PM 29.4000 -82.9211 331° Northwest 401 461 34,000  Level Jacksonville Center
05:27PM 29.5022 -82.9881 330° Northwest 406 467 34,000  Level Jacksonville Center
05:28PM 29.6025 -83.0525 331° Northwest 411 473 34,000  Level Jacksonville Center
05:29PM 29.7089 -83.1053 337° Northwest 411 473 34,000  Level Jacksonville Center
05:30PM 29.8194 -83.1536 339° North 416 479 34,000  Level Jacksonville Center
05:31PM 29.9258 -83.2017 339° North 410 472 34,000  Level Jacksonville Center
05:32PM 30.0239 -83.2475 338° Northwest 415 478 34,000  Level Jacksonville Center
05:33PM 30.1322 -83.2986 338° Northwest 415 478 34,000  Level Jacksonville Center
05:34PM 30.2386 -83.3469 339° North 415 478 34,000  Level Jacksonville Center
05:35PM 30.3447 -83.3981 337° Northwest 415 478 34,000  Level Jacksonville Center
05:36PM 30.4533 -83.4469 339° North 415 478 34,000  Level Jacksonville Center
05:37PM 30.5617 -83.4956 339° North 415 478 34,000  Level Jacksonville Center
05:38PM 30.6678 -83.5494 336° Northwest 415 478 34,000  Level Jacksonville Center
05:39PM 30.7697 -83.5986 337° Northwest 407 468 34,000  Level Jacksonville Center
05:40PM 30.8761 -83.6503 337° Northwest 407 468 34,000  Level Jacksonville Center
05:41PM 30.9842 -83.6994 339° North 407 468 34,000  Level Jacksonville Center
05:42PM 31.0906 -83.7514 337° Northwest 412 474 34,000  Level Jacksonville Center
05:43PM 31.1967 -83.8033 337° Northwest 412 474 34,000  Level Jacksonville Center
05:44PM 31.3028 -83.8531 338° Northwest 412 474 34,000  Level Jacksonville Center
05:46PM 31.5650 -83.9731 339° North 414 476 34,000  Level Atlanta Center
05:47PM 31.6819 -83.9975 350° North 414 476 34,000  Level Atlanta Center
05:48PM 31.7989 -84.0242 349° North 419 482 34,000  Level Atlanta Center
05:49PM 31.9136 -84.0461 351° North 419 482 34,000  Level Atlanta Center
05:50PM 32.0325 -84.0731 349° North 419 482 34,000  Level Atlanta Center
05:51PM 32.1558 -84.1025 349° North 419 482 34,000  Level Atlanta Center
05:52PM 32.2725 -84.1272 350° North 419 482 34,000  Level Atlanta Center
05:53PM 32.3872 -84.1519 350° North 419 482 34,000  Level Atlanta Center
05:54PM 32.5022 -84.1767 350° North 419 482 34,000  Level Atlanta Center
05:55PM 32.6147 -84.2042 348° North 414 476 34,000  Level Atlanta Center
05:56PM 32.7294 -84.2339 348° North 414 476 34,000  Level Atlanta Center
05:57PM 32.8464 -84.2589 350° North 419 482 34,000  Level Atlanta Center
05:58PM 32.9611 -84.2839 350° North 426 490 34,000  Level Atlanta Center
05:59PM 33.0781 -84.3117 349° North 426 490 34,000  Level Atlanta Center
06:00PM 33.1947 -84.3367 350° North 426 490 34,000  Level Atlanta Center
06:01PM 33.3136 -84.3644 349° North 433 498 34,000  Level Atlanta Center
06:02PM 33.4283 -84.3922 349° North 427 491 34,000  Level Atlanta Center
06:03PM 33.5369 -84.4178 349° North 432 497 34,000  Level Atlanta Center
06:04PM 33.6536 -84.4431 350° North 425 489 34,000  Level Atlanta Center
06:05PM 33.7664 -84.4711 348° North 425 489 34,000  Level Atlanta Center
06:06PM 33.8831 -84.4992 349° North 431 496 34,000  Level Atlanta Center
06:07PM 34.0208 -84.5350 348° North 440 506 34,000  Level Atlanta Center
06:08PM 34.1458 -84.5608 350° North 445 512 34,000  Level Atlanta Center
06:09PM 34.2647 -84.5892 349° North 451 519 34,000  Level Atlanta Center
06:10PM 34.3858 -84.6025 355° North 445 512 34,000  Level Atlanta Center
06:11PM 34.5108 -84.6161 355° North 445 512 34,000  Level Atlanta Center
06:12PM 34.6214 -84.6244 356° North 445 512 34,000  Level Atlanta Center
06:13PM 34.7550 -84.6381 355° North 439 505 34,000  Level Atlanta Center
06:14PM 34.8781 -84.6464 357° North 439 505 34,000  Level Atlanta Center
06:15PM 35.0053 -84.6575 356° North 439 505 34,000  Level Atlanta Center
06:16PM 35.1303 -84.6686 356° North 439 505 34,000  Level Atlanta Center
06:17PM 35.2556 -84.6797 356° North 444 511 34,000  Level Atlanta Center
06:18PM 35.3806 -84.6908 356° North 444 511 34,000  Level Atlanta Center
06:19PM 35.5078 -84.7019 356° North 444 511 34,000  Level Atlanta Center
06:20PM 35.6308 -84.7133 356° North 444 511 34,000  Level Atlanta Center
06:21PM 35.7581 -84.7219 357° North 444 511 34,000  Level Atlanta Center
06:22PM 35.8853 -84.7308 357° North 449 517 34,000  Level Atlanta Center
06:24PM 36.1086 -84.7528 355° North 454 522 34,000  Level Indianapolis Center
06:25PM 36.2328 -84.7633 356° North 450 518 34,000  Level Indianapolis Center
06:26PM 36.3578 -84.7753 356° North 450 518 34,000  Level Indianapolis Center
06:27PM 36.4864 -84.7606 North 470 541 34,000  Level Indianapolis Center
06:28PM 36.6133 -84.7228 13° North 468 539 34,000  Level Indianapolis Center
06:29PM 36.7664 -84.6781 13° North 470 541 34,000  Level Indianapolis Center
06:30PM 36.8928 -84.6408 13° North 468 539 34,000  Level Indianapolis Center
06:31PM 37.0186 -84.6033 13° North 465 535 34,000  Level Indianapolis Center
06:32PM 37.1381 -84.5667 14° North 463 533 34,000  Level Indianapolis Center
06:33PM 37.2644 -84.5289 13° North 464 534 34,000  Level Indianapolis Center
06:34PM 37.3908 -84.4936 13° North 463 533 34,000  Level Indianapolis Center
06:35PM 37.5317 -84.5267 349° North 444 511 34,000  Level Indianapolis Center
06:36PM 37.6506 -84.5725 343° North 443 510 34,000  Level Indianapolis Center
06:37PM 37.7672 -84.6161 344° North 439 505 34,000  Level Indianapolis Center
06:38PM 37.8842 -84.6592 344° North 437 503 34,000  Level Indianapolis Center
06:39PM 38.0031 -84.7039 343° North 441 507 34,000  Level Indianapolis Center
06:40PM 38.1214 -84.7464 344° North 443 510 34,000  Level Indianapolis Center
06:41PM 38.2403 -84.7925 343° North 444 511 34,000  Level Indianapolis Center
06:42PM 38.3581 -84.8372 343° North 442 509 34,000  Level Indianapolis Center
06:43PM 38.4975 -84.8900 344° North 445 512 34,000  Level Indianapolis Center
06:45PM 38.6153 -84.9375 343° North 443 510 34,000 -300 Level Indianapolis Center
06:46PM 38.7400 -84.9850 343° North 453 521 33,400 -840 Descending Indianapolis Center
06:47PM 38.8603 -85.0300 344° North 448 516 32,300 -1,080 Descending Indianapolis Center
06:48PM 38.9769 -85.0761 343° North 440 506 31,200 -1,140 Descending Indianapolis Center
06:49PM 39.0939 -85.1214 343° North 437 503 30,100 -600 Descending Indianapolis Center
06:50PM 39.2136 -85.1683 343° North 443 510 30,000 -60 Descending Indianapolis Center
06:51PM 39.3378 -85.2181 343° North 458 527 30,000  Level Indianapolis Center
06:52PM 39.4647 -85.2672 343° North 469 540 30,000  Level Indianapolis Center
06:53PM 39.5894 -85.3158 343° North 468 539 30,000 -600 Level Indianapolis Center
06:54PM 39.7347 -85.3739 343° North 467 537 28,900 -1,080 Descending Indianapolis Center
06:55PM 39.8542 -85.4211 343° North 452 520 27,900 -1,140 Descending Indianapolis Center
06:56PM 39.9722 -85.4683 343° North 445 512 26,600 -1,020 Descending Indianapolis Center
06:57PM 40.0872 -85.5156 343° North 435 501 25,900 -840 Descending Indianapolis Center
06:58PM 40.1831 -85.5517 344° North 434 499 25,100 -1,020 Descending Chicago Center
06:59PM 40.2958 -85.6056 340° North 438 504 24,100 -540 Descending Chicago Center
07:00PM 40.3783 -85.7119 316° Northwest 416 479 24,000 -60 Descending Chicago Center
07:01PM 40.4572 -85.8272 312° West 421 484 24,000 -180 Level Chicago Center
07:02PM 40.5350 -85.9431 311° West 422 486 23,700 -840 Descending Chicago Center
07:03PM 40.6136 -86.0564 312° West 419 482 22,400 -1,260 Descending Chicago Center
07:04PM 40.6933 -86.1764 311° West 414 476 21,200 -1,200 Descending Chicago Center
07:05PM 40.7683 -86.2881 312° West 409 471 20,000 -1,140 Descending Chicago Center
07:06PM 40.8442 -86.4025 311° West 412 474 18,900 -1,140 Descending Chicago Center
07:07PM 40.9175 -86.5136 311° West 403 464 17,700 -1,080 Descending Chicago Center
07:08PM 40.9897 -86.6222 311° West 396 456 16,700 -1,080 Descending Chicago Center
07:09PM 41.0661 -86.7364 312° West 387 445 15,600 -1,080 Descending Chicago Center
07:10PM 41.1361 -86.8419 311° West 384 442 14,500 -1,140 Descending Chicago Center
07:11PM 41.2167 -86.9661 311° West 374 430 13,300 -1,140 Descending Chicago Center
07:12PM 41.2842 -87.0694 311° West 372 428 12,200 -1,080 Descending Chicago Center
07:13PM 41.3500 -87.1711 311° West 367 422 11,100 -600 Descending Chicago Center
07:14PM 41.4333 -87.2667 319° Northwest 364 419 11,000 -60 Descending Chicago TRACON
07:15PM 41.5000 -87.3500 317° Northwest 363 418 11,000  Level Chicago TRACON
07:16PM 41.5833 -87.4333 323° Northwest 365 420 11,000  Level Chicago TRACON
07:17PM 41.6500 -87.5167 317° Northwest 363 418 11,000  Level Chicago TRACON
07:18PM 41.7167 -87.6000 317° Northwest 362 417 11,000 -120 Level Chicago TRACON
07:18PM 41.7417 -87.6253 323° Northwest 362 417 10,900 -900 Descending Chicago Center
07:19PM 41.7833 -87.6667 323° Northwest 304 350 10,200 -1,560 Descending Chicago TRACON
07:20PM 41.8500 -87.7500 317° Northwest 299 344 8,200 -1,620 Descending Chicago TRACON
07:21PM 41.8833 -87.8500 294° West 291 335 7,100 -600 Descending Chicago TRACON
07:22PM 41.8833 -87.9500 270° West 239 275 7,000 -120 Descending Chicago TRACON
07:23PM 41.8833 -88.0167 270° West 213 245 6,900 -720 Descending Chicago TRACON
07:24PM 41.8833 -88.0833 270° West 187 215 5,700 -1,200 Descending Chicago TRACON
07:25PM 41.8833 -88.1500 270° West 186 214 4,500 -1,140 Descending Chicago TRACON
07:25PM 41.8864 -88.1869 276° West 188 216 4,000 -360 Descending Chicago Center
07:26PM 41.9369 -88.1994 350° North 188 216 4,000  Level Chicago Center
07:27PM 41.9661 -88.1539 49° Northeast 179 206 4,000 -540 Level Chicago Center
07:28PM 41.9681 -88.0931 88° East 169 194 3,000 -960 Descending Chicago Center
07:29PM 41.9689 -88.0347 89° East 163 188 2,100 -900 Descending Chicago Center